createdAt,value
2018-08-07T05:33:31.858Z,24.70
2018-08-07T05:36:01.137Z,27.70
2018-08-07T05:38:30.250Z,23.60
2018-08-07T05:40:59.413Z,21.60
2018-08-07T05:43:28.571Z,21.30
2018-08-07T05:45:57.760Z,21.10
2018-08-07T05:48:26.950Z,21.10
2018-08-07T05:50:57.860Z,21.20
2018-08-07T05:53:26.717Z,21.20
2018-08-07T05:55:59.041Z,21.30
2018-08-07T05:58:28.299Z,21.40
2018-08-07T06:00:57.474Z,21.50
2018-08-07T06:03:27.046Z,21.50
2018-08-07T06:05:56.335Z,21.60
2018-08-07T06:08:25.517Z,21.50
2018-08-07T06:10:54.788Z,21.40
2018-08-07T06:13:24.082Z,21.30
2018-08-07T06:15:53.207Z,21.40
2018-08-07T06:18:22.387Z,21.60
2018-08-07T06:20:51.550Z,21.90
2018-08-07T06:23:20.710Z,22.10
2018-08-07T06:25:49.844Z,21.90
2018-08-07T06:28:19.064Z,21.50
2018-08-07T06:30:48.251Z,21.90
2018-08-07T06:33:17.939Z,22.40
2018-08-07T06:35:47.726Z,22.70
2018-08-07T06:38:16.917Z,22.70
2018-08-07T06:40:46.089Z,22.70
2018-08-07T06:43:15.291Z,22.60
2018-08-07T06:45:44.578Z,22.70
2018-08-07T06:50:42.574Z,23.00
2018-08-07T06:53:12.633Z,22.90
2018-08-07T06:55:41.846Z,22.90
2018-08-07T06:58:11.034Z,22.90
2018-08-07T07:00:40.234Z,22.90
2018-08-07T07:03:09.489Z,23.00
2018-08-07T07:05:38.734Z,22.90
2018-08-07T07:08:07.982Z,22.90
2018-08-07T07:10:37.155Z,23.00
2018-08-07T07:13:06.334Z,23.00
2018-08-07T07:15:35.700Z,23.00
2018-08-07T07:18:05.029Z,23.10
2018-08-07T07:20:34.188Z,23.10
2018-08-07T07:23:03.415Z,23.20
2018-08-07T07:25:32.678Z,23.20
2018-08-07T07:28:01.842Z,23.20
2018-08-07T07:30:30.948Z,23.30
2018-08-07T07:33:00.057Z,23.40
2018-08-07T07:35:29.179Z,23.40
2018-08-07T07:37:58.349Z,23.60
2018-08-07T07:40:27.470Z,23.70
2018-08-07T07:42:56.714Z,23.70
2018-08-07T07:45:26.311Z,23.80
2018-08-07T07:47:55.433Z,23.90
2018-08-07T07:50:24.675Z,23.80
2018-08-07T07:52:53.791Z,23.90
2018-08-07T07:55:23.014Z,24.10
2018-08-07T07:57:52.191Z,24.10
2018-08-07T08:00:23.692Z,24.20
2018-08-07T08:02:53.266Z,24.40
2018-08-07T08:05:23.650Z,24.40
2018-08-07T08:07:53.118Z,24.50
2018-08-07T08:10:22.338Z,24.70
2018-08-07T08:12:51.465Z,24.90
2018-08-07T08:17:50.610Z,25.40
2018-08-07T08:20:22.695Z,25.90
2018-08-07T08:22:52.592Z,26.10
2018-08-07T08:25:21.759Z,26.50
2018-08-07T08:27:51.074Z,26.60
2018-08-07T08:30:20.355Z,26.50
2018-08-07T08:32:49.525Z,26.20
2018-08-07T08:35:20.046Z,26.00
2018-08-07T08:37:49.712Z,25.90
2018-08-07T08:40:20.586Z,25.70
2018-08-07T08:42:49.773Z,25.60
2018-08-07T08:45:21.518Z,25.60
2018-08-07T08:47:52.266Z,25.60
2018-08-07T08:50:22.280Z,25.60
2018-08-07T08:52:51.522Z,25.30
2018-08-07T08:55:20.754Z,25.30
2018-08-07T08:57:49.932Z,25.30
2018-08-07T09:00:21.188Z,25.40
2018-08-07T09:02:50.495Z,25.50
2018-08-07T09:05:19.686Z,25.50
2018-08-07T09:07:48.846Z,25.50
2018-08-07T09:10:23.306Z,25.50
2018-08-07T09:12:53.818Z,25.40
2018-08-07T09:15:23.174Z,25.40
2018-08-07T09:17:52.378Z,25.50
2018-08-07T09:22:51.730Z,25.60
2018-08-07T09:25:22.126Z,25.60
2018-08-07T09:27:51.304Z,25.30
2018-08-07T09:30:23.318Z,25.20
2018-08-07T09:32:53.294Z,25.30
2018-08-07T09:35:23.158Z,25.30
2018-08-07T09:37:52.410Z,25.20
2018-08-07T09:40:22.569Z,25.20
2018-08-07T09:42:53.011Z,25.30
2018-08-07T09:45:26.882Z,25.40
2018-08-07T09:47:56.221Z,25.50
2018-08-07T09:50:26.587Z,25.50
2018-08-07T09:52:55.855Z,25.60
2018-08-07T09:55:25.052Z,25.40
2018-08-07T09:57:54.750Z,25.50
2018-08-07T10:00:29.767Z,25.50
2018-08-07T10:03:01.496Z,25.40
2018-08-07T10:05:33.145Z,25.60
2018-08-07T10:08:03.770Z,25.70
2018-08-07T10:10:33.574Z,25.80
2018-08-07T10:13:03.765Z,25.90
2018-08-07T10:15:33.959Z,26.00
2018-08-07T10:18:04.184Z,26.00
2018-08-07T10:20:33.345Z,26.00
2018-08-07T10:23:04.058Z,26.00
2018-08-07T10:25:35.474Z,26.10
2018-08-07T10:28:05.574Z,26.30
2018-08-07T10:30:36.315Z,26.50
2018-08-07T10:33:06.442Z,26.60
2018-08-07T10:35:36.084Z,26.80
2018-08-07T10:38:05.947Z,26.90
2018-08-07T10:40:35.447Z,27.00
2018-08-07T10:43:04.844Z,27.30
2018-08-07T10:45:35.410Z,27.60
2018-08-07T10:48:05.114Z,28.00
2018-08-07T10:50:34.234Z,27.90
2018-08-07T10:53:03.472Z,28.00
2018-08-07T10:55:33.480Z,28.10
2018-08-07T10:58:02.662Z,28.50
2018-08-07T11:00:34.111Z,28.80
2018-08-07T11:03:04.185Z,29.10
2018-08-07T11:05:33.645Z,29.30
2018-08-07T11:08:03.458Z,30.10
2018-08-07T11:10:32.728Z,30.40
2018-08-07T11:13:03.486Z,29.90
2018-08-07T11:15:34.454Z,30.30
2018-08-07T11:18:04.559Z,30.00
2018-08-07T11:20:34.158Z,30.30
2018-08-07T11:23:04.061Z,30.60
2018-08-07T11:25:34.573Z,30.60
2018-08-07T11:28:04.093Z,30.50
2018-08-07T11:30:33.447Z,30.90
2018-08-07T11:33:03.321Z,31.40
2018-08-07T11:35:32.600Z,31.70
2018-08-07T11:38:02.625Z,31.50
2018-08-07T11:40:32.031Z,31.90
2018-08-07T11:43:02.102Z,31.60
2018-08-07T11:45:32.201Z,31.90
2018-08-07T11:48:01.405Z,31.80
2018-08-07T11:50:31.874Z,31.70
2018-08-07T11:53:01.148Z,31.50
2018-08-07T11:55:30.987Z,31.20
2018-08-07T11:58:00.238Z,31.60
2018-08-07T12:00:35.702Z,31.40
2018-08-07T12:03:06.475Z,31.00
2018-08-07T12:05:35.758Z,31.10
2018-08-07T12:08:05.623Z,30.80
2018-08-07T12:10:34.891Z,31.10
2018-08-07T12:13:04.150Z,31.50
2018-08-07T12:15:33.322Z,31.50
2018-08-07T12:18:02.493Z,31.00
2018-08-07T12:20:31.884Z,31.10
2018-08-07T12:23:01.998Z,30.60
2018-08-07T12:25:32.583Z,30.60
2018-08-07T12:28:02.060Z,30.60
2018-08-07T12:30:31.980Z,30.80
2018-08-07T12:33:01.239Z,30.30
2018-08-07T12:35:30.538Z,30.30
2018-08-07T12:37:59.855Z,30.10
2018-08-07T12:40:30.820Z,30.00
2018-08-07T12:43:02.897Z,30.10
2018-08-07T12:45:33.058Z,30.00
2018-08-07T12:48:02.271Z,30.30
2018-08-07T12:50:31.765Z,30.40
2018-08-07T12:53:00.905Z,30.30
2018-08-07T12:55:30.163Z,30.30
2018-08-07T12:58:00.044Z,30.30
2018-08-07T13:00:32.662Z,30.60
2018-08-07T13:03:02.205Z,30.50
2018-08-07T13:05:31.410Z,30.60
2018-08-07T13:08:00.658Z,30.70
2018-08-07T13:10:30.431Z,30.40
2018-08-07T13:12:59.626Z,30.80
2018-08-07T13:15:29.130Z,31.30
2018-08-07T13:17:58.415Z,31.30
2018-08-07T13:20:28.548Z,31.10
2018-08-07T13:22:58.029Z,31.00
2018-08-07T13:25:29.094Z,31.10
2018-08-07T13:27:58.338Z,31.30
2018-08-07T13:30:28.214Z,31.50
2018-08-07T13:32:57.893Z,31.70
2018-08-07T13:35:27.146Z,31.50
2018-08-07T13:37:56.272Z,31.50
2018-08-07T13:40:26.213Z,32.00
2018-08-07T13:42:55.388Z,31.60
2018-08-07T13:45:25.650Z,32.20
2018-08-07T13:47:54.822Z,32.30
2018-08-07T13:50:24.883Z,32.00
2018-08-07T13:52:54.551Z,32.40
2018-08-07T13:55:25.054Z,32.70
2018-08-07T13:57:54.296Z,32.90
2018-08-07T14:00:26.623Z,32.40
2018-08-07T14:02:56.567Z,32.00
2018-08-07T14:05:26.802Z,32.30
2018-08-07T14:07:57.070Z,32.40
2018-08-07T14:10:27.385Z,32.70
2018-08-07T14:12:57.030Z,32.70
2018-08-07T14:15:28.173Z,32.40
2018-08-07T14:17:57.884Z,32.50
2018-08-07T14:20:28.193Z,31.80
2018-08-07T14:22:58.834Z,31.80
2018-08-07T14:25:29.270Z,31.80
2018-08-07T14:27:58.551Z,31.60
2018-08-07T14:30:29.911Z,31.60
2018-08-07T14:33:00.809Z,31.60
2018-08-07T14:35:29.982Z,31.30
2018-08-07T14:37:59.148Z,31.10
2018-08-07T14:40:29.166Z,31.20
2018-08-07T14:42:58.515Z,31.20
2018-08-07T14:45:29.129Z,31.20
2018-08-07T14:50:29.408Z,31.40
2018-08-07T14:52:58.786Z,31.30
2018-08-07T14:55:28.091Z,31.20
2018-08-07T14:57:57.378Z,31.10
2018-08-07T15:00:27.872Z,31.20
2018-08-07T15:02:57.101Z,31.40
2018-08-07T15:05:26.310Z,31.40
2018-08-07T15:07:55.441Z,31.30
2018-08-07T15:10:25.843Z,31.20
2018-08-07T15:12:55.034Z,30.90
2018-08-07T15:15:32.206Z,30.80
2018-08-07T15:18:01.429Z,30.60
2018-08-07T15:20:31.495Z,30.40
2018-08-07T15:23:00.594Z,30.40
2018-08-07T15:25:30.094Z,30.10
2018-08-07T15:27:59.290Z,30.00
2018-08-07T15:30:29.046Z,29.90
2018-08-07T15:32:58.242Z,29.80
2018-08-07T15:35:29.341Z,29.70
2018-08-07T15:37:58.961Z,29.50
2018-08-07T15:40:28.514Z,29.40
2018-08-07T15:42:57.691Z,29.30
2018-08-07T15:45:28.019Z,29.10
2018-08-07T15:47:57.772Z,29.10
2018-08-07T15:50:26.998Z,29.00
2018-08-07T15:52:56.617Z,29.10
2018-08-07T15:55:27.033Z,29.20
2018-08-07T15:57:56.250Z,29.40
2018-08-07T16:00:27.917Z,29.00
2018-08-07T16:02:57.286Z,28.90
2018-08-07T16:05:26.457Z,28.90
2018-08-07T16:07:55.650Z,28.90
2018-08-07T16:10:24.819Z,29.10
2018-08-07T16:12:54.934Z,29.30
2018-08-07T16:15:24.395Z,29.30
2018-08-07T16:17:54.650Z,29.30
2018-08-07T16:20:24.220Z,29.30
2018-08-07T16:22:53.432Z,29.40
2018-08-07T16:25:23.025Z,29.40
2018-08-07T16:27:52.568Z,29.30
2018-08-07T16:30:23.350Z,29.00
2018-08-07T16:32:52.479Z,28.90
2018-08-07T16:35:21.730Z,28.90
2018-08-07T16:37:51.182Z,28.70
2018-08-07T16:40:22.531Z,28.80
2018-08-07T16:42:52.955Z,28.60
2018-08-07T16:45:23.065Z,28.70
2018-08-07T16:47:52.282Z,28.70
2018-08-07T16:50:24.242Z,28.70
2018-08-07T16:52:54.284Z,28.50
2018-08-07T16:55:26.087Z,28.50
2018-08-07T16:57:56.045Z,28.50
2018-08-07T17:00:25.337Z,28.50
2018-08-07T17:02:55.262Z,28.50
2018-08-07T17:05:24.447Z,28.50
2018-08-07T17:10:25.159Z,28.40
2018-08-07T17:12:54.553Z,28.30
2018-08-07T17:15:24.901Z,28.30
2018-08-07T17:17:59.138Z,28.10
2018-08-07T17:20:28.601Z,28.20
2018-08-07T17:22:57.777Z,28.10
2018-08-07T17:25:26.954Z,28.00
2018-08-07T17:27:56.188Z,28.00
2018-08-07T17:30:27.320Z,28.00
2018-08-07T17:32:56.570Z,27.80
2018-08-07T17:35:26.863Z,28.00
2018-08-07T17:37:57.401Z,28.00
2018-08-07T17:40:28.117Z,27.80
2018-08-07T17:42:57.618Z,27.90
2018-08-07T17:45:26.824Z,27.80
2018-08-07T17:47:55.962Z,27.70
2018-08-07T17:50:26.251Z,27.70
2018-08-07T17:52:58.021Z,27.80
2018-08-07T17:55:27.326Z,27.80
2018-08-07T17:57:57.835Z,27.90
2018-08-07T18:00:27.428Z,27.90
2018-08-07T18:02:56.622Z,27.80
2018-08-07T18:05:26.483Z,27.90
2018-08-07T18:07:56.740Z,27.90
2018-08-07T18:10:26.317Z,27.70
2018-08-07T18:12:55.530Z,27.60
2018-08-07T18:15:25.168Z,27.40
2018-08-07T18:17:54.309Z,27.40
2018-08-07T18:20:25.609Z,27.20
2018-08-07T18:22:54.767Z,27.00
2018-08-07T18:25:24.208Z,26.90
2018-08-07T18:27:53.374Z,26.70
2018-08-07T18:30:23.938Z,26.60
2018-08-07T18:32:53.598Z,26.50
2018-08-07T18:35:26.120Z,26.30
2018-08-07T18:37:55.347Z,26.30
2018-08-07T18:42:53.426Z,25.70
2018-08-07T18:45:22.771Z,25.80
2018-08-07T18:47:51.951Z,25.70
2018-08-07T18:50:22.774Z,25.70
2018-08-07T18:52:51.983Z,25.30
2018-08-07T18:55:21.335Z,25.20
2018-08-07T18:57:51.259Z,25.20
2018-08-07T19:00:22.198Z,25.20
2018-08-07T19:02:52.267Z,25.20
2018-08-07T19:05:23.118Z,25.10
2018-08-07T19:07:52.294Z,24.90
2018-08-07T19:10:21.789Z,24.90
2018-08-07T19:12:51.624Z,24.90
2018-08-07T19:15:21.673Z,24.80
2018-08-07T19:17:51.622Z,24.70
2018-08-07T19:20:22.301Z,24.60
2018-08-07T19:22:52.391Z,24.30
2018-08-07T19:25:22.933Z,24.10
2018-08-07T19:27:52.175Z,24.10
2018-08-07T19:30:26.760Z,24.10
2018-08-07T19:32:56.258Z,24.10
2018-08-07T19:36:05.350Z,24.10
2018-08-07T19:38:34.570Z,24.20
2018-08-07T19:41:03.724Z,24.10
2018-08-07T19:43:32.988Z,24.10
2018-08-07T19:46:02.298Z,23.90
2018-08-07T19:48:31.776Z,23.90
2018-08-07T19:51:01.287Z,23.90
2018-08-07T19:53:30.686Z,23.80
2018-08-07T19:55:59.896Z,23.60
2018-08-07T19:58:29.086Z,23.20
2018-08-07T20:00:58.586Z,23.20
2018-08-07T20:03:28.787Z,23.30
2018-08-07T20:05:58.641Z,23.20
2018-08-07T20:08:27.818Z,22.80
2018-08-07T20:10:57.238Z,22.60
2018-08-07T20:13:26.536Z,22.70
2018-08-07T20:15:57.543Z,22.40
2018-08-07T20:18:27.884Z,22.20
2018-08-07T20:20:58.247Z,22.40
2018-08-07T20:23:27.376Z,22.70
2018-08-07T20:25:56.599Z,22.90
2018-08-07T20:28:25.822Z,22.90
2018-08-07T20:30:55.066Z,22.80
2018-08-07T20:33:24.197Z,22.80
2018-08-07T20:35:53.457Z,22.80
2018-08-07T20:38:23.076Z,22.70
2018-08-07T20:40:53.429Z,22.60
2018-08-07T20:43:22.817Z,22.60
2018-08-07T20:45:51.941Z,22.60
2018-08-07T20:48:21.341Z,22.20
2018-08-07T20:50:50.637Z,21.80
2018-08-07T20:53:19.824Z,21.80
2018-08-07T20:55:48.983Z,22.00
2018-08-07T20:58:19.384Z,22.10
2018-08-07T21:00:52.001Z,22.10
2018-08-07T21:03:21.494Z,21.60
2018-08-07T21:05:51.594Z,21.50
2018-08-07T21:08:21.267Z,21.40
2018-08-07T21:10:50.671Z,21.60
2018-08-07T21:13:20.178Z,21.80
2018-08-07T21:15:49.733Z,21.70
2018-08-07T21:18:19.270Z,21.90
2018-08-07T21:20:48.856Z,22.00
2018-08-07T21:23:18.328Z,21.90
2018-08-07T21:25:47.946Z,21.70
2018-08-07T21:28:17.291Z,21.70
2018-08-07T21:30:46.542Z,21.80
2018-08-07T21:33:16.065Z,21.80
2018-08-07T21:35:45.474Z,21.70
2018-08-07T21:38:14.774Z,21.60
2018-08-07T21:40:44.094Z,21.60
2018-08-07T21:43:14.330Z,21.50
2018-08-07T21:45:43.528Z,21.40
2018-08-07T21:48:13.458Z,21.60
2018-08-07T21:50:43.559Z,21.30
2018-08-07T21:53:12.716Z,20.90
2018-08-07T21:55:41.927Z,21.10
2018-08-07T21:58:11.802Z,20.70
2018-08-07T22:00:46.030Z,20.90
2018-08-07T22:03:15.249Z,21.20
2018-08-07T22:05:44.418Z,21.30
2018-08-07T22:08:14.831Z,21.20
2018-08-07T22:10:44.122Z,21.30
2018-08-07T22:13:13.246Z,21.10
2018-08-07T22:15:42.398Z,21.10
2018-08-07T22:18:12.166Z,21.20
2018-08-07T22:20:41.410Z,21.20
2018-08-07T22:23:10.653Z,20.70
2018-08-07T22:25:39.898Z,20.80
2018-08-07T22:28:09.101Z,20.80
2018-08-07T22:30:38.273Z,20.80
2018-08-07T22:33:07.426Z,20.90
2018-08-07T22:35:36.538Z,21.10
2018-08-07T22:38:05.703Z,21.20
2018-08-07T22:40:34.881Z,20.80
2018-08-07T22:43:04.100Z,20.80
2018-08-07T22:45:33.310Z,20.70
2018-08-07T22:48:02.485Z,20.70
2018-08-07T22:50:31.629Z,20.80
2018-08-07T22:53:00.811Z,20.90
2018-08-07T22:55:29.993Z,20.70
2018-08-07T22:57:59.134Z,20.60
2018-08-07T23:00:28.435Z,20.50
2018-08-07T23:02:57.534Z,20.20
2018-08-07T23:05:29.735Z,20.20
2018-08-07T23:07:59.721Z,20.40
2018-08-07T23:10:28.882Z,19.90
2018-08-07T23:12:58.053Z,20.10
2018-08-07T23:15:27.407Z,20.10
2018-08-07T23:17:56.537Z,20.00
2018-08-07T23:20:26.586Z,20.10
2018-08-07T23:22:56.845Z,20.20
2018-08-07T23:25:26.060Z,20.20
2018-08-07T23:27:55.202Z,20.30
2018-08-07T23:30:24.439Z,20.20
2018-08-07T23:32:53.598Z,19.80
2018-08-07T23:35:22.761Z,19.90
2018-08-07T23:37:51.917Z,19.90
2018-08-07T23:40:21.132Z,19.90
2018-08-07T23:42:50.796Z,19.70
2018-08-07T23:45:20.014Z,19.70
2018-08-07T23:47:49.138Z,19.30
2018-08-07T23:50:18.321Z,19.50
2018-08-07T23:52:47.823Z,19.70
2018-08-07T23:55:16.982Z,19.80
2018-08-07T23:57:46.714Z,19.80
